Seabulk New Hampshire — WBR6261 — position and weather

sailwx.info

Track history (hours):
 
Tides and Currents Weather Stations Pressure Air Temp Water Temp Dewpoint Dewpoint Depression Visibility Wind Speed Wind Dir Waves Ship Positions

Seabulk New Hampshire

Owner: SEABULK OFFSHORE LTD, MORGAN CITY, LA. More information available from US FCC via Universal Licensing System and Coast Guard Vessel Documentation Center.

Last reported at 2014-Dec-09 13:28 UTC. Time now 2014-Dec-20 03:46 UTC.
Position N 29°33' W 090°24'.
Warning: this ship's position is 10 days out of date.

; draft 3.4 m.

Type: Cargo ship. MMSI: 366999110.

Date/timePositionNaut miles runAvg speedWind from/ knotsBaromVisibWave heightAir tempDewpointWater temp
2014-Dec-09 13:28N 29°33' W 090°24'0 0.2
2014-Dec-09 12:33N 29°33' W 090°24'9 3.7
2014-Dec-09 10:14N 29°34' W 090°33'8 4.8
2014-Dec-09 08:32N 29°37' W 090°42'3 3.2
2014-Dec-09 07:33N 29°34' W 090°43'6 5.5
2014-Dec-09 06:30N 29°28' W 090°43'5 5.7
2014-Dec-09 05:33N 29°23' W 090°44'  
2014-Dec-02 09:16N 29°09' W 090°14'0 0.0
2014-Dec-02 08:16N 29°09' W 090°14'0 0.0
2014-Dec-02 07:26N 29°09' W 090°14'  
Track history (hours):
 
Tides and Currents Weather Stations Pressure Air Temp Water Temp Dewpoint Dewpoint Depression Visibility Wind Speed Wind Dir Waves Ship Positions

Seabulk New Hampshire

Owner: SEABULK OFFSHORE LTD, MORGAN CITY, LA. More information available from US FCC via Universal Licensing System and Coast Guard Vessel Documentation Center.

Last reported at 2014-Dec-09 13:28 UTC. Time now 2014-Dec-20 03:46 UTC.
Position N 29°33' W 090°24'.
Warning: this ship's position is 10 days out of date.

; draft 3.4 m.

Type: Cargo ship. MMSI: 366999110.

Date/timePositionNaut miles runAvg speedWind from/ knotsBaromVisibWave heightAir tempDewpointWater temp
2014-Dec-09 13:28N 29°33' W 090°24'0 0.2
2014-Dec-09 12:33N 29°33' W 090°24'9 3.7
2014-Dec-09 10:14N 29°34' W 090°33'8 4.8
2014-Dec-09 08:32N 29°37' W 090°42'3 3.2
2014-Dec-09 07:33N 29°34' W 090°43'6 5.5
2014-Dec-09 06:30N 29°28' W 090°43'5 5.7
2014-Dec-09 05:33N 29°23' W 090°44'  
2014-Dec-02 09:16N 29°09' W 090°14'0 0.0
2014-Dec-02 08:16N 29°09' W 090°14'0 0.0
2014-Dec-02 07:26N 29°09' W 090°14'  

Dump ship's entire track history